sensor_id;sensor_type;location;lat;lon;timestamp;P1;durP1;ratioP1;P2;durP2;ratioP2
31382;SDS011;18014;49.228;11.102;2023-08-08T00:01:07;4.20;;;2.55;;
31382;SDS011;18014;49.228;11.102;2023-08-08T00:03:09;3.15;;;2.17;;
31382;SDS011;18014;49.228;11.102;2023-08-08T00:05:10;3.42;;;2.22;;
31382;SDS011;18014;49.228;11.102;2023-08-08T00:07:11;4.45;;;2.50;;
31382;SDS011;18014;49.228;11.102;2023-08-08T00:09:12;3.05;;;2.47;;
31382;SDS011;18014;49.228;11.102;2023-08-08T00:11:13;3.33;;;2.10;;
31382;SDS011;18014;49.228;11.102;2023-08-08T00:13:15;4.82;;;2.40;;
31382;SDS011;18014;49.228;11.102;2023-08-08T00:15:16;2.90;;;2.38;;
31382;SDS011;18014;49.228;11.102;2023-08-08T00:17:16;3.97;;;2.33;;
31382;SDS011;18014;49.228;11.102;2023-08-08T00:19:17;2.72;;;2.15;;
31382;SDS011;18014;49.228;11.102;2023-08-08T00:21:21;2.20;;;1.70;;
31382;SDS011;18014;49.228;11.102;2023-08-08T00:23:23;2.72;;;2.35;;
31382;SDS011;18014;49.228;11.102;2023-08-08T00:25:24;3.65;;;1.90;;
31382;SDS011;18014;49.228;11.102;2023-08-08T00:27:24;2.20;;;1.90;;
31382;SDS011;18014;49.228;11.102;2023-08-08T00:29:25;2.83;;;2.20;;
31382;SDS011;18014;49.228;11.102;2023-08-08T00:31:26;2.53;;;2.33;;
31382;SDS011;18014;49.228;11.102;2023-08-08T00:33:27;2.47;;;1.70;;
31382;SDS011;18014;49.228;11.102;2023-08-08T00:35:28;4.43;;;2.13;;
31382;SDS011;18014;49.228;11.102;2023-08-08T00:37:29;2.65;;;2.35;;
31382;SDS011;18014;49.228;11.102;2023-08-08T00:39:30;2.15;;;1.77;;
31382;SDS011;18014;49.228;11.102;2023-08-08T00:41:31;6.60;;;2.47;;
31382;SDS011;18014;49.228;11.102;2023-08-08T00:43:32;2.72;;;2.15;;
31382;SDS011;18014;49.228;11.102;2023-08-08T00:45:34;2.95;;;2.13;;
31382;SDS011;18014;49.228;11.102;2023-08-08T00:47:35;7.30;;;1.90;;
31382;SDS011;18014;49.228;11.102;2023-08-08T00:49:36;3.83;;;2.35;;
31382;SDS011;18014;49.228;11.102;2023-08-08T00:51:37;8.35;;;1.83;;
31382;SDS011;18014;49.228;11.102;2023-08-08T00:53:38;2.08;;;1.73;;
31382;SDS011;18014;49.228;11.102;2023-08-08T00:55:40;2.38;;;1.85;;
31382;SDS011;18014;49.228;11.102;2023-08-08T00:57:41;2.67;;;2.30;;
31382;SDS011;18014;49.228;11.102;2023-08-08T00:59:42;2.80;;;2.20;;
31382;SDS011;18014;49.228;11.102;2023-08-08T01:01:43;4.05;;;2.50;;
31382;SDS011;18014;49.228;11.102;2023-08-08T01:03:44;4.30;;;2.17;;
31382;SDS011;18014;49.228;11.102;2023-08-08T01:05:47;3.25;;;1.73;;
31382;SDS011;18014;49.228;11.102;2023-08-08T01:08:01;3.83;;;2.30;;
31382;SDS011;18014;49.228;11.102;2023-08-08T01:10:05;3.83;;;1.65;;
31382;SDS011;18014;49.228;11.102;2023-08-08T01:12:12;2.45;;;1.95;;
31382;SDS011;18014;49.228;11.102;2023-08-08T01:14:14;3.03;;;2.00;;
31382;SDS011;18014;49.228;11.102;2023-08-08T01:16:16;3.47;;;2.30;;
31382;SDS011;18014;49.228;11.102;2023-08-08T01:18:19;2.13;;;1.92;;
31382;SDS011;18014;49.228;11.102;2023-08-08T01:20:21;4.40;;;1.70;;
31382;SDS011;18014;49.228;11.102;2023-08-08T01:22:27;2.80;;;1.93;;
31382;SDS011;18014;49.228;11.102;2023-08-08T01:24:42;4.07;;;2.00;;
31382;SDS011;18014;49.228;11.102;2023-08-08T01:26:45;2.75;;;1.77;;
31382;SDS011;18014;49.228;11.102;2023-08-08T01:28:47;2.67;;;1.83;;
31382;SDS011;18014;49.228;11.102;2023-08-08T01:30:48;3.20;;;1.83;;
31382;SDS011;18014;49.228;11.102;2023-08-08T01:32:49;5.93;;;2.08;;
31382;SDS011;18014;49.228;11.102;2023-08-08T01:34:50;3.28;;;1.70;;
31382;SDS011;18014;49.228;11.102;2023-08-08T01:38:58;1.73;;;1.63;;
31382;SDS011;18014;49.228;11.102;2023-08-08T01:41:04;4.93;;;1.90;;
31382;SDS011;18014;49.228;11.102;2023-08-08T01:43:05;2.22;;;1.73;;
31382;SDS011;18014;49.228;11.102;2023-08-08T01:45:07;2.47;;;1.70;;
31382;SDS011;18014;49.228;11.102;2023-08-08T01:47:09;2.45;;;1.65;;
31382;SDS011;18014;49.228;11.102;2023-08-08T01:49:10;5.75;;;1.83;;
31382;SDS011;18014;49.228;11.102;2023-08-08T01:51:11;1.95;;;1.48;;
31382;SDS011;18014;49.228;11.102;2023-08-08T01:53:12;2.03;;;1.50;;
31382;SDS011;18014;49.228;11.102;2023-08-08T01:55:13;2.70;;;1.63;;
31382;SDS011;18014;49.228;11.102;2023-08-08T01:57:14;2.80;;;2.00;;
31382;SDS011;18014;49.228;11.102;2023-08-08T01:59:15;2.42;;;1.70;;
31382;SDS011;18014;49.228;11.102;2023-08-08T02:01:16;3.17;;;1.98;;
31382;SDS011;18014;49.228;11.102;2023-08-08T02:03:17;1.52;;;1.25;;
31382;SDS011;18014;49.228;11.102;2023-08-08T02:05:18;2.00;;;1.75;;
31382;SDS011;18014;49.228;11.102;2023-08-08T02:07:19;2.08;;;1.73;;
31382;SDS011;18014;49.228;11.102;2023-08-08T02:09:20;1.95;;;1.63;;
31382;SDS011;18014;49.228;11.102;2023-08-08T02:11:21;3.45;;;1.70;;
31382;SDS011;18014;49.228;11.102;2023-08-08T02:13:22;2.15;;;1.85;;
31382;SDS011;18014;49.228;11.102;2023-08-08T02:15:23;2.67;;;1.52;;
31382;SDS011;18014;49.228;11.102;2023-08-08T02:17:24;4.18;;;1.58;;
31382;SDS011;18014;49.228;11.102;2023-08-08T02:19:26;4.43;;;1.45;;
31382;SDS011;18014;49.228;11.102;2023-08-08T02:21:27;2.95;;;1.70;;
31382;SDS011;18014;49.228;11.102;2023-08-08T02:23:28;2.00;;;1.65;;
31382;SDS011;18014;49.228;11.102;2023-08-08T02:25:29;2.80;;;1.75;;
31382;SDS011;18014;49.228;11.102;2023-08-08T02:27:30;2.90;;;1.70;;
31382;SDS011;18014;49.228;11.102;2023-08-08T02:29:31;1.88;;;1.55;;
31382;SDS011;18014;49.228;11.102;2023-08-08T02:31:32;2.05;;;1.85;;
31382;SDS011;18014;49.228;11.102;2023-08-08T02:33:33;2.03;;;1.35;;
31382;SDS011;18014;49.228;11.102;2023-08-08T02:35:36;2.63;;;1.95;;
31382;SDS011;18014;49.228;11.102;2023-08-08T02:37:37;4.55;;;2.25;;
31382;SDS011;18014;49.228;11.102;2023-08-08T02:39:38;3.45;;;1.40;;
31382;SDS011;18014;49.228;11.102;2023-08-08T02:41:39;1.65;;;1.48;;
31382;SDS011;18014;49.228;11.102;2023-08-08T02:43:40;2.38;;;1.45;;
31382;SDS011;18014;49.228;11.102;2023-08-08T02:45:41;5.57;;;1.88;;
31382;SDS011;18014;49.228;11.102;2023-08-08T02:47:42;2.55;;;2.00;;
31382;SDS011;18014;49.228;11.102;2023-08-08T02:49:43;1.85;;;1.50;;
31382;SDS011;18014;49.228;11.102;2023-08-08T02:51:44;2.22;;;1.40;;
31382;SDS011;18014;49.228;11.102;2023-08-08T02:53:45;2.78;;;1.90;;
31382;SDS011;18014;49.228;11.102;2023-08-08T02:55:46;4.05;;;1.85;;
31382;SDS011;18014;49.228;11.102;2023-08-08T02:57:47;2.53;;;1.73;;
31382;SDS011;18014;49.228;11.102;2023-08-08T02:59:48;6.38;;;2.03;;
31382;SDS011;18014;49.228;11.102;2023-08-08T03:01:50;1.75;;;1.60;;
31382;SDS011;18014;49.228;11.102;2023-08-08T03:03:51;2.33;;;1.77;;
31382;SDS011;18014;49.228;11.102;2023-08-08T03:05:52;2.35;;;1.85;;
31382;SDS011;18014;49.228;11.102;2023-08-08T03:07:53;1.85;;;1.58;;
31382;SDS011;18014;49.228;11.102;2023-08-08T03:09:54;4.63;;;2.47;;
31382;SDS011;18014;49.228;11.102;2023-08-08T03:11:55;1.83;;;1.30;;
31382;SDS011;18014;49.228;11.102;2023-08-08T03:13:56;2.17;;;1.52;;
31382;SDS011;18014;49.228;11.102;2023-08-08T03:15:57;2.45;;;1.92;;
31382;SDS011;18014;49.228;11.102;2023-08-08T03:17:58;5.97;;;1.70;;
31382;SDS011;18014;49.228;11.102;2023-08-08T03:19:59;4.45;;;1.70;;
31382;SDS011;18014;49.228;11.102;2023-08-08T03:22:00;2.70;;;2.00;;
31382;SDS011;18014;49.228;11.102;2023-08-08T03:24:01;2.25;;;1.98;;
31382;SDS011;18014;49.228;11.102;2023-08-08T03:26:02;2.90;;;1.83;;
31382;SDS011;18014;49.228;11.102;2023-08-08T03:28:03;1.80;;;1.50;;
31382;SDS011;18014;49.228;11.102;2023-08-08T03:30:05;3.15;;;1.63;;
31382;SDS011;18014;49.228;11.102;2023-08-08T03:32:06;2.97;;;1.70;;
31382;SDS011;18014;49.228;11.102;2023-08-08T03:34:07;3.53;;;1.90;;
31382;SDS011;18014;49.228;11.102;2023-08-08T03:36:08;2.25;;;1.85;;
31382;SDS011;18014;49.228;11.102;2023-08-08T03:38:09;2.05;;;1.70;;
31382;SDS011;18014;49.228;11.102;2023-08-08T03:40:10;2.22;;;1.50;;
31382;SDS011;18014;49.228;11.102;2023-08-08T03:42:13;5.05;;;1.83;;
31382;SDS011;18014;49.228;11.102;2023-08-08T03:44:15;2.65;;;1.67;;
31382;SDS011;18014;49.228;11.102;2023-08-08T03:46:16;8.90;;;1.70;;
31382;SDS011;18014;49.228;11.102;2023-08-08T03:48:17;3.58;;;1.90;;
31382;SDS011;18014;49.228;11.102;2023-08-08T03:50:18;2.22;;;1.85;;
31382;SDS011;18014;49.228;11.102;2023-08-08T03:52:19;2.03;;;1.83;;
31382;SDS011;18014;49.228;11.102;2023-08-08T03:54:20;3.13;;;1.67;;
31382;SDS011;18014;49.228;11.102;2023-08-08T03:56:20;2.88;;;1.90;;
31382;SDS011;18014;49.228;11.102;2023-08-08T03:58:21;3.55;;;1.70;;
31382;SDS011;18014;49.228;11.102;2023-08-08T04:00:22;2.35;;;1.85;;
31382;SDS011;18014;49.228;11.102;2023-08-08T04:02:24;5.50;;;2.00;;
31382;SDS011;18014;49.228;11.102;2023-08-08T04:04:25;4.35;;;1.90;;
31382;SDS011;18014;49.228;11.102;2023-08-08T04:06:26;6.22;;;2.03;;
31382;SDS011;18014;49.228;11.102;2023-08-08T04:08:27;2.40;;;2.10;;
31382;SDS011;18014;49.228;11.102;2023-08-08T04:10:28;1.98;;;1.80;;
31382;SDS011;18014;49.228;11.102;2023-08-08T04:12:29;3.75;;;2.13;;
31382;SDS011;18014;49.228;11.102;2023-08-08T04:14:32;2.95;;;2.13;;
31382;SDS011;18014;49.228;11.102;2023-08-08T04:16:33;4.65;;;2.03;;
31382;SDS011;18014;49.228;11.102;2023-08-08T04:18:34;3.33;;;2.60;;
31382;SDS011;18014;49.228;11.102;2023-08-08T04:20:35;4.05;;;2.05;;
31382;SDS011;18014;49.228;11.102;2023-08-08T04:22:36;3.08;;;2.00;;
31382;SDS011;18014;49.228;11.102;2023-08-08T04:24:37;4.03;;;2.35;;
31382;SDS011;18014;49.228;11.102;2023-08-08T04:26:38;4.05;;;2.10;;
31382;SDS011;18014;49.228;11.102;2023-08-08T04:28:40;3.33;;;1.73;;
31382;SDS011;18014;49.228;11.102;2023-08-08T04:30:40;2.40;;;2.05;;
31382;SDS011;18014;49.228;11.102;2023-08-08T04:32:41;4.97;;;2.05;;
31382;SDS011;18014;49.228;11.102;2023-08-08T04:34:42;3.75;;;2.05;;
31382;SDS011;18014;49.228;11.102;2023-08-08T04:36:44;2.90;;;2.10;;
31382;SDS011;18014;49.228;11.102;2023-08-08T04:38:45;2.13;;;1.80;;
31382;SDS011;18014;49.228;11.102;2023-08-08T04:40:46;2.75;;;1.83;;
31382;SDS011;18014;49.228;11.102;2023-08-08T04:42:47;4.70;;;2.47;;
31382;SDS011;18014;49.228;11.102;2023-08-08T04:44:48;4.57;;;1.63;;
31382;SDS011;18014;49.228;11.102;2023-08-08T04:46:49;2.58;;;2.10;;
31382;SDS011;18014;49.228;11.102;2023-08-08T04:48:50;3.63;;;2.10;;
31382;SDS011;18014;49.228;11.102;2023-08-08T04:50:51;1.73;;;1.60;;
31382;SDS011;18014;49.228;11.102;2023-08-08T04:52:52;3.80;;;2.28;;
31382;SDS011;18014;49.228;11.102;2023-08-08T04:54:53;4.75;;;1.77;;
31382;SDS011;18014;49.228;11.102;2023-08-08T04:56:54;3.30;;;2.25;;
31382;SDS011;18014;49.228;11.102;2023-08-08T04:58:55;3.70;;;2.03;;
31382;SDS011;18014;49.228;11.102;2023-08-08T05:00:56;4.15;;;2.03;;
31382;SDS011;18014;49.228;11.102;2023-08-08T05:02:57;4.20;;;2.15;;
31382;SDS011;18014;49.228;11.102;2023-08-08T05:04:59;3.53;;;1.65;;
31382;SDS011;18014;49.228;11.102;2023-08-08T05:07:00;3.70;;;2.20;;
31382;SDS011;18014;49.228;11.102;2023-08-08T05:09:01;4.07;;;2.08;;
31382;SDS011;18014;49.228;11.102;2023-08-08T05:11:03;2.22;;;2.03;;
31382;SDS011;18014;49.228;11.102;2023-08-08T05:13:04;2.28;;;1.90;;
31382;SDS011;18014;49.228;11.102;2023-08-08T05:15:05;3.15;;;1.92;;
31382;SDS011;18014;49.228;11.102;2023-08-08T05:17:07;5.15;;;2.08;;
31382;SDS011;18014;49.228;11.102;2023-08-08T05:19:08;4.22;;;2.10;;
31382;SDS011;18014;49.228;11.102;2023-08-08T05:21:09;2.45;;;1.85;;
31382;SDS011;18014;49.228;11.102;2023-08-08T05:23:10;2.13;;;1.70;;
31382;SDS011;18014;49.228;11.102;2023-08-08T05:25:11;2.03;;;1.83;;
31382;SDS011;18014;49.228;11.102;2023-08-08T05:27:12;2.50;;;1.95;;
31382;SDS011;18014;49.228;11.102;2023-08-08T05:29:13;3.25;;;2.08;;
31382;SDS011;18014;49.228;11.102;2023-08-08T05:31:14;3.13;;;1.95;;
31382;SDS011;18014;49.228;11.102;2023-08-08T05:33:15;3.25;;;1.67;;
31382;SDS011;18014;49.228;11.102;2023-08-08T05:35:16;2.08;;;1.40;;
31382;SDS011;18014;49.228;11.102;2023-08-08T05:37:17;1.80;;;1.50;;
31382;SDS011;18014;49.228;11.102;2023-08-08T05:39:18;1.83;;;1.60;;
31382;SDS011;18014;49.228;11.102;2023-08-08T05:41:19;3.50;;;1.80;;
31382;SDS011;18014;49.228;11.102;2023-08-08T05:43:20;8.13;;;2.13;;
31382;SDS011;18014;49.228;11.102;2023-08-08T05:45:21;3.22;;;1.48;;
31382;SDS011;18014;49.228;11.102;2023-08-08T05:47:22;4.03;;;1.95;;
31382;SDS011;18014;49.228;11.102;2023-08-08T05:49:23;4.03;;;1.85;;
31382;SDS011;18014;49.228;11.102;2023-08-08T05:51:24;2.92;;;1.73;;
31382;SDS011;18014;49.228;11.102;2023-08-08T05:53:25;3.08;;;1.42;;
31382;SDS011;18014;49.228;11.102;2023-08-08T05:55:26;1.80;;;1.70;;
31382;SDS011;18014;49.228;11.102;2023-08-08T05:57:27;2.95;;;1.40;;
31382;SDS011;18014;49.228;11.102;2023-08-08T05:59:28;1.67;;;1.30;;
31382;SDS011;18014;49.228;11.102;2023-08-08T06:01:29;4.93;;;1.77;;
31382;SDS011;18014;49.228;11.102;2023-08-08T06:03:31;5.00;;;1.83;;
31382;SDS011;18014;49.228;11.102;2023-08-08T06:05:32;3.35;;;1.30;;
31382;SDS011;18014;49.228;11.102;2023-08-08T06:07:33;4.60;;;1.77;;
31382;SDS011;18014;49.228;11.102;2023-08-08T06:09:34;1.70;;;1.45;;
31382;SDS011;18014;49.228;11.102;2023-08-08T06:11:37;2.70;;;1.70;;
31382;SDS011;18014;49.228;11.102;2023-08-08T06:13:38;3.72;;;1.67;;
31382;SDS011;18014;49.228;11.102;2023-08-08T06:15:39;6.75;;;2.00;;
31382;SDS011;18014;49.228;11.102;2023-08-08T06:17:40;1.63;;;1.20;;
31382;SDS011;18014;49.228;11.102;2023-08-08T06:19:41;3.90;;;1.35;;
31382;SDS011;18014;49.228;11.102;2023-08-08T06:21:42;10.68;;;1.75;;
31382;SDS011;18014;49.228;11.102;2023-08-08T06:23:43;2.28;;;1.48;;
31382;SDS011;18014;49.228;11.102;2023-08-08T06:25:44;6.55;;;1.65;;
31382;SDS011;18014;49.228;11.102;2023-08-08T06:27:45;3.00;;;1.40;;
31382;SDS011;18014;49.228;11.102;2023-08-08T06:29:46;2.72;;;1.45;;
31382;SDS011;18014;49.228;11.102;2023-08-08T06:31:47;2.35;;;1.23;;
31382;SDS011;18014;49.228;11.102;2023-08-08T06:33:48;2.15;;;1.52;;
31382;SDS011;18014;49.228;11.102;2023-08-08T06:35:49;2.83;;;1.35;;
31382;SDS011;18014;49.228;11.102;2023-08-08T06:37:50;1.55;;;1.25;;
31382;SDS011;18014;49.228;11.102;2023-08-08T06:39:50;4.07;;;1.30;;
31382;SDS011;18014;49.228;11.102;2023-08-08T06:41:51;1.45;;;1.35;;
31382;SDS011;18014;49.228;11.102;2023-08-08T06:43:52;2.53;;;1.10;;
31382;SDS011;18014;49.228;11.102;2023-08-08T06:45:54;1.38;;;1.10;;
31382;SDS011;18014;49.228;11.102;2023-08-08T06:47:55;2.92;;;1.30;;
31382;SDS011;18014;49.228;11.102;2023-08-08T06:49:57;2.70;;;1.42;;
31382;SDS011;18014;49.228;11.102;2023-08-08T06:51:58;2.75;;;1.25;;
31382;SDS011;18014;49.228;11.102;2023-08-08T06:53:58;2.78;;;1.50;;
31382;SDS011;18014;49.228;11.102;2023-08-08T06:55:59;1.30;;;1.20;;
31382;SDS011;18014;49.228;11.102;2023-08-08T06:58:00;3.30;;;1.50;;
31382;SDS011;18014;49.228;11.102;2023-08-08T07:00:02;3.63;;;1.25;;
31382;SDS011;18014;49.228;11.102;2023-08-08T07:02:06;1.60;;;1.10;;
31382;SDS011;18014;49.228;11.102;2023-08-08T07:04:07;5.43;;;1.33;;
31382;SDS011;18014;49.228;11.102;2023-08-08T07:06:08;1.55;;;1.25;;
31382;SDS011;18014;49.228;11.102;2023-08-08T07:08:09;2.35;;;1.20;;
31382;SDS011;18014;49.228;11.102;2023-08-08T07:10:11;3.00;;;1.58;;
31382;SDS011;18014;49.228;11.102;2023-08-08T07:12:12;3.13;;;1.55;;
31382;SDS011;18014;49.228;11.102;2023-08-08T07:14:13;2.08;;;1.35;;
31382;SDS011;18014;49.228;11.102;2023-08-08T07:16:14;1.35;;;1.17;;
31382;SDS011;18014;49.228;11.102;2023-08-08T07:18:15;1.70;;;1.60;;
31382;SDS011;18014;49.228;11.102;2023-08-08T07:20:16;2.53;;;1.00;;
31382;SDS011;18014;49.228;11.102;2023-08-08T07:22:17;1.75;;;1.13;;
31382;SDS011;18014;49.228;11.102;2023-08-08T07:24:18;1.55;;;1.30;;
31382;SDS011;18014;49.228;11.102;2023-08-08T07:26:20;1.45;;;1.00;;
31382;SDS011;18014;49.228;11.102;2023-08-08T07:28:22;1.67;;;1.30;;
31382;SDS011;18014;49.228;11.102;2023-08-08T07:30:23;2.45;;;1.10;;
31382;SDS011;18014;49.228;11.102;2023-08-08T07:32:25;2.50;;;1.07;;
31382;SDS011;18014;49.228;11.102;2023-08-08T07:34:26;4.18;;;1.45;;
31382;SDS011;18014;49.228;11.102;2023-08-08T07:36:27;2.17;;;1.05;;
31382;SDS011;18014;49.228;11.102;2023-08-08T07:38:27;1.95;;;1.48;;
31382;SDS011;18014;49.228;11.102;2023-08-08T07:40:28;2.08;;;1.30;;
31382;SDS011;18014;49.228;11.102;2023-08-08T07:42:30;1.70;;;1.15;;
31382;SDS011;18014;49.228;11.102;2023-08-08T07:44:31;2.58;;;1.33;;
31382;SDS011;18014;49.228;11.102;2023-08-08T07:46:34;2.13;;;1.30;;
31382;SDS011;18014;49.228;11.102;2023-08-08T07:48:35;1.67;;;1.35;;
31382;SDS011;18014;49.228;11.102;2023-08-08T07:50:36;1.88;;;1.25;;
31382;SDS011;18014;49.228;11.102;2023-08-08T07:52:37;2.92;;;1.00;;
31382;SDS011;18014;49.228;11.102;2023-08-08T07:54:38;2.58;;;1.40;;
31382;SDS011;18014;49.228;11.102;2023-08-08T07:56:39;4.25;;;1.10;;
31382;SDS011;18014;49.228;11.102;2023-08-08T07:58:42;2.45;;;1.05;;
31382;SDS011;18014;49.228;11.102;2023-08-08T08:00:44;3.67;;;1.63;;
31382;SDS011;18014;49.228;11.102;2023-08-08T08:02:45;1.50;;;1.15;;
31382;SDS011;18014;49.228;11.102;2023-08-08T08:04:47;3.45;;;1.17;;
31382;SDS011;18014;49.228;11.102;2023-08-08T08:06:47;1.23;;;0.90;;
31382;SDS011;18014;49.228;11.102;2023-08-08T08:08:48;3.67;;;1.23;;
31382;SDS011;18014;49.228;11.102;2023-08-08T08:10:50;1.20;;;0.88;;
31382;SDS011;18014;49.228;11.102;2023-08-08T08:12:51;0.90;;;0.73;;
31382;SDS011;18014;49.228;11.102;2023-08-08T08:14:58;5.18;;;0.80;;
31382;SDS011;18014;49.228;11.102;2023-08-08T08:16:59;2.45;;;1.27;;
31382;SDS011;18014;49.228;11.102;2023-08-08T08:19:00;0.68;;;0.55;;
31382;SDS011;18014;49.228;11.102;2023-08-08T08:21:01;3.70;;;0.77;;
31382;SDS011;18014;49.228;11.102;2023-08-08T08:23:02;0.70;;;0.60;;
31382;SDS011;18014;49.228;11.102;2023-08-08T08:25:04;0.93;;;0.82;;
31382;SDS011;18014;49.228;11.102;2023-08-08T08:27:07;1.92;;;0.82;;
31382;SDS011;18014;49.228;11.102;2023-08-08T08:29:08;1.30;;;1.02;;
31382;SDS011;18014;49.228;11.102;2023-08-08T08:31:09;3.50;;;0.85;;
31382;SDS011;18014;49.228;11.102;2023-08-08T08:33:10;0.77;;;0.65;;
31382;SDS011;18014;49.228;11.102;2023-08-08T08:35:11;1.70;;;1.08;;
31382;SDS011;18014;49.228;11.102;2023-08-08T08:37:13;0.65;;;0.63;;
31382;SDS011;18014;49.228;11.102;2023-08-08T08:39:14;1.20;;;0.82;;
31382;SDS011;18014;49.228;11.102;2023-08-08T08:41:17;2.95;;;1.10;;
31382;SDS011;18014;49.228;11.102;2023-08-08T08:43:19;0.55;;;0.55;;
31382;SDS011;18014;49.228;11.102;2023-08-08T08:45:20;0.95;;;0.85;;
31382;SDS011;18014;49.228;11.102;2023-08-08T08:47:24;0.60;;;0.60;;
31382;SDS011;18014;49.228;11.102;2023-08-08T08:49:25;0.60;;;0.60;;
31382;SDS011;18014;49.228;11.102;2023-08-08T08:51:29;0.90;;;0.60;;
31382;SDS011;18014;49.228;11.102;2023-08-08T08:53:30;0.30;;;0.30;;
31382;SDS011;18014;49.228;11.102;2023-08-08T08:55:39;1.83;;;0.80;;
31382;SDS011;18014;49.228;11.102;2023-08-08T08:57:40;1.48;;;0.57;;
31382;SDS011;18014;49.228;11.102;2023-08-08T08:59:42;0.97;;;0.90;;
31382;SDS011;18014;49.228;11.102;2023-08-08T09:01:43;6.65;;;0.90;;
31382;SDS011;18014;49.228;11.102;2023-08-08T09:03:44;3.88;;;1.00;;
31382;SDS011;18014;49.228;11.102;2023-08-08T09:05:45;4.95;;;1.13;;
31382;SDS011;18014;49.228;11.102;2023-08-08T09:07:48;0.47;;;0.47;;
31382;SDS011;18014;49.228;11.102;2023-08-08T09:09:51;0.70;;;0.70;;
31382;SDS011;18014;49.228;11.102;2023-08-08T09:11:53;0.60;;;0.60;;
31382;SDS011;18014;49.228;11.102;2023-08-08T09:13:55;0.40;;;0.40;;
31382;SDS011;18014;49.228;11.102;2023-08-08T09:15:55;0.80;;;0.52;;
31382;SDS011;18014;49.228;11.102;2023-08-08T09:17:56;2.40;;;0.77;;
31382;SDS011;18014;49.228;11.102;2023-08-08T09:19:58;1.33;;;0.70;;
31382;SDS011;18014;49.228;11.102;2023-08-08T09:21:59;1.27;;;0.82;;
31382;SDS011;18014;49.228;11.102;2023-08-08T09:24:01;2.25;;;1.27;;
31382;SDS011;18014;49.228;11.102;2023-08-08T09:26:02;2.05;;;0.68;;
31382;SDS011;18014;49.228;11.102;2023-08-08T09:28:03;1.13;;;0.68;;
31382;SDS011;18014;49.228;11.102;2023-08-08T09:30:04;0.45;;;0.45;;
31382;SDS011;18014;49.228;11.102;2023-08-08T09:32:06;0.82;;;0.60;;
31382;SDS011;18014;49.228;11.102;2023-08-08T09:34:07;0.68;;;0.68;;
31382;SDS011;18014;49.228;11.102;2023-08-08T09:36:13;1.42;;;1.05;;
31382;SDS011;18014;49.228;11.102;2023-08-08T09:38:15;1.67;;;0.85;;
31382;SDS011;18014;49.228;11.102;2023-08-08T09:40:16;1.85;;;0.90;;
31382;SDS011;18014;49.228;11.102;2023-08-08T09:42:17;0.70;;;0.70;;
31382;SDS011;18014;49.228;11.102;2023-08-08T09:44:22;0.70;;;0.70;;
31382;SDS011;18014;49.228;11.102;2023-08-08T09:46:26;0.70;;;0.70;;
31382;SDS011;18014;49.228;11.102;2023-08-08T09:48:30;1.10;;;0.57;;
31382;SDS011;18014;49.228;11.102;2023-08-08T09:50:32;1.55;;;0.55;;
31382;SDS011;18014;49.228;11.102;2023-08-08T09:54:38;3.38;;;1.73;;
31382;SDS011;18014;49.228;11.102;2023-08-08T09:56:39;1.80;;;0.75;;
31382;SDS011;18014;49.228;11.102;2023-08-08T09:58:42;1.45;;;1.10;;
31382;SDS011;18014;49.228;11.102;2023-08-08T10:00:43;3.80;;;0.77;;
31382;SDS011;18014;49.228;11.102;2023-08-08T10:02:44;0.85;;;0.77;;
31382;SDS011;18014;49.228;11.102;2023-08-08T10:04:46;0.57;;;0.55;;
31382;SDS011;18014;49.228;11.102;2023-08-08T10:06:47;1.00;;;0.77;;
31382;SDS011;18014;49.228;11.102;2023-08-08T10:08:49;0.50;;;0.50;;
31382;SDS011;18014;49.228;11.102;2023-08-08T10:10:51;0.55;;;0.55;;
31382;SDS011;18014;49.228;11.102;2023-08-08T10:12:52;0.55;;;0.50;;
31382;SDS011;18014;49.228;11.102;2023-08-08T10:14:53;0.93;;;0.57;;
31382;SDS011;18014;49.228;11.102;2023-08-08T10:16:55;0.75;;;0.75;;
31382;SDS011;18014;49.228;11.102;2023-08-08T10:18:58;2.00;;;0.82;;
31382;SDS011;18014;49.228;11.102;2023-08-08T10:21:00;0.80;;;0.75;;
31382;SDS011;18014;49.228;11.102;2023-08-08T10:23:04;1.23;;;0.50;;
31382;SDS011;18014;49.228;11.102;2023-08-08T10:25:07;0.75;;;0.63;;
31382;SDS011;18014;49.228;11.102;2023-08-08T10:27:08;1.42;;;0.70;;
31382;SDS011;18014;49.228;11.102;2023-08-08T10:29:17;0.68;;;0.50;;
31382;SDS011;18014;49.228;11.102;2023-08-08T10:31:19;1.02;;;0.68;;
31382;SDS011;18014;49.228;11.102;2023-08-08T10:33:22;4.57;;;0.60;;
31382;SDS011;18014;49.228;11.102;2023-08-08T10:35:34;0.80;;;0.45;;
31382;SDS011;18014;49.228;11.102;2023-08-08T10:37:37;0.50;;;0.50;;
31382;SDS011;18014;49.228;11.102;2023-08-08T10:41:53;0.63;;;0.63;;
31382;SDS011;18014;49.228;11.102;2023-08-08T10:43:56;2.92;;;0.70;;
31382;SDS011;18014;49.228;11.102;2023-08-08T10:45:58;0.80;;;0.80;;
31382;SDS011;18014;49.228;11.102;2023-08-08T10:48:08;4.90;;;0.77;;
31382;SDS011;18014;49.228;11.102;2023-08-08T10:52:15;0.40;;;0.40;;
31382;SDS011;18014;49.228;11.102;2023-08-08T10:54:17;1.08;;;0.38;;
31382;SDS011;18014;49.228;11.102;2023-08-08T10:56:20;0.70;;;0.70;;
31382;SDS011;18014;49.228;11.102;2023-08-08T11:00:35;1.13;;;0.45;;
31382;SDS011;18014;49.228;11.102;2023-08-08T11:02:42;0.70;;;0.65;;
31382;SDS011;18014;49.228;11.102;2023-08-08T11:04:44;1.27;;;0.80;;
31382;SDS011;18014;49.228;11.102;2023-08-08T11:06:46;1.15;;;0.88;;
31382;SDS011;18014;49.228;11.102;2023-08-08T11:08:47;0.50;;;0.50;;
31382;SDS011;18014;49.228;11.102;2023-08-08T11:10:50;1.10;;;0.65;;
31382;SDS011;18014;49.228;11.102;2023-08-08T11:12:54;1.25;;;0.80;;
31382;SDS011;18014;49.228;11.102;2023-08-08T11:15:00;0.82;;;0.82;;
31382;SDS011;18014;49.228;11.102;2023-08-08T11:17:01;0.85;;;0.60;;
31382;SDS011;18014;49.228;11.102;2023-08-08T11:19:03;2.22;;;1.13;;
31382;SDS011;18014;49.228;11.102;2023-08-08T11:21:09;0.60;;;0.60;;
31382;SDS011;18014;49.228;11.102;2023-08-08T11:23:11;0.75;;;0.50;;
31382;SDS011;18014;49.228;11.102;2023-08-08T11:25:14;0.97;;;0.63;;
31382;SDS011;18014;49.228;11.102;2023-08-08T11:27:15;0.60;;;0.60;;
31382;SDS011;18014;49.228;11.102;2023-08-08T11:29:16;1.58;;;0.95;;
31382;SDS011;18014;49.228;11.102;2023-08-08T11:31:18;1.67;;;0.50;;
31382;SDS011;18014;49.228;11.102;2023-08-08T11:33:21;0.77;;;0.77;;
31382;SDS011;18014;49.228;11.102;2023-08-08T11:35:23;1.30;;;0.40;;
31382;SDS011;18014;49.228;11.102;2023-08-08T11:37:24;2.20;;;0.93;;
31382;SDS011;18014;49.228;11.102;2023-08-08T11:39:26;3.20;;;0.95;;
31382;SDS011;18014;49.228;11.102;2023-08-08T11:41:27;1.15;;;0.80;;
31382;SDS011;18014;49.228;11.102;2023-08-08T11:43:29;2.13;;;1.40;;
31382;SDS011;18014;49.228;11.102;2023-08-08T11:45:31;1.13;;;1.02;;
31382;SDS011;18014;49.228;11.102;2023-08-08T11:47:32;0.75;;;0.40;;
31382;SDS011;18014;49.228;11.102;2023-08-08T11:49:41;0.90;;;0.73;;
31382;SDS011;18014;49.228;11.102;2023-08-08T11:51:43;4.68;;;0.88;;
31382;SDS011;18014;49.228;11.102;2023-08-08T11:53:49;0.47;;;0.45;;
31382;SDS011;18014;49.228;11.102;2023-08-08T11:55:51;0.57;;;0.40;;
31382;SDS011;18014;49.228;11.102;2023-08-08T11:57:53;1.33;;;0.77;;
31382;SDS011;18014;49.228;11.102;2023-08-08T11:59:57;1.95;;;0.50;;
31382;SDS011;18014;49.228;11.102;2023-08-08T12:01:58;0.68;;;0.68;;
31382;SDS011;18014;49.228;11.102;2023-08-08T12:04:06;1.13;;;0.50;;
31382;SDS011;18014;49.228;11.102;2023-08-08T12:06:11;1.70;;;0.63;;
31382;SDS011;18014;49.228;11.102;2023-08-08T12:08:19;0.95;;;0.68;;
31382;SDS011;18014;49.228;11.102;2023-08-08T12:10:21;1.10;;;0.77;;
31382;SDS011;18014;49.228;11.102;2023-08-08T12:12:23;0.80;;;0.50;;